Aérodrome :
LOGIN :

S'inscrire | Disclaimer

   EN    FR    IT 

 










Légende :    VFR   VFR Marginal   IFR   IFR Intensif   IFR Très Intensif
Visi : 
Plafond : 
>= 8 km
>= 3000ft
5 à 8 km
1000 à 3000 ft
1500m à 5 km
500 à 1000 ft
800 à 1500m
200 à 500 ft
< 800m
< 200 ft
Symboles :   Orages  Brouillard  Fortes neiges  Fortes précipitations  Vent > 20 kt
SIGMETs :   Divers  Orages  Givrage  Turbulence  Onde Orograph.  Cendres Volcan.






- Altitude de l'aérodrome : 650 ft
- Code IATA : ZJI


LSZL - Locarno

DERNIER METAR :
  • 170050Z AUTO VRB01KT 9999NDV SCT100 15/14 Q1015 RMK

METARs EXPIRÉS :
  • 170020Z AUTO VRB01KT 9999NDV FEW110 15/14 Q1015 RMK
  • 162350Z AUTO 00000KT 9999NDV NCD 15/14 Q1015 RMK
  • 162320Z AUTO VRB01KT 9999NDV NCD 16/15 Q1015 RMK
  • 162250Z AUTO VRB01KT 9999NDV NCD 16/14 Q1015 RMK
  • 162220Z AUTO 00000KT 9999NDV NCD 16/15 Q1014 RMK
  • 162150Z AUTO VRB01KT 9999NDV FEW089 17/15 Q1014 RMK
  • 162120Z AUTO 00000KT 9999NDV FEW100 18/15 Q1014 RMK
  • 162050Z AUTO VRB02KT 9999NDV FEW130 20/15 Q1014 RMK
  • 162020Z AUTO 13003KT 080V230 9999NDV FEW120 20/15 Q1013 RMK

TAF TAF LSZL
Valide du 16 à 18h jusqu'au 17 à 03h UTC


161725Z 1618/1703 25003KT 9999 FEW060
BECMG 1618/1621 CAVOK



MET'MAP, la Météo Aéronautique d'un coup d'oeil ! - Copyright ORBIFLY Décembre 2007 - Disclaimer

ORBIFLY MET'MAP TEAM :

Programmation & Développement : Alexandra Zaïnal
Sur une idée originale de : Baudouin d'Aumeries
Soutien technique & logistique : Manuel Goepfert
Assistance : Marc-Olivier Méhu




SOURCES & CREDITS :

   NOAA